aviador You're here:

KSTF Decoded Metar

in
Report Time2017-08-06 08:15:00
UTC Time2017-08-22 15:05:24
Flight Rules Old
WindCalm
Visibility8047 m
Phenomena:Mist
Clouds:N/A
CeilingNone
Temp21°C
Dew Point21°C (100% RH)
QNH1016 hPa
Raw Report
KSTF 060815Z AUTO 00000KT 5SM BR CLR 21/21 A2999 RMK AO2=

Extra information for KSTF:More info

Social comments